sensor_id;sensor_type;location;lat;lon;timestamp;temperature;humidity
7998;DHT22;4044;49.814;7.828;2024-01-10T00:01:32;-3.10;73.00
7998;DHT22;4044;49.814;7.828;2024-01-10T00:03:57;-3.20;72.70
7998;DHT22;4044;49.814;7.828;2024-01-10T00:06:23;-3.20;72.70
7998;DHT22;4044;49.814;7.828;2024-01-10T00:08:49;-3.20;72.90
7998;DHT22;4044;49.814;7.828;2024-01-10T00:11:16;-3.20;72.90
7998;DHT22;4044;49.814;7.828;2024-01-10T00:13:41;-3.20;73.70
7998;DHT22;4044;49.814;7.828;2024-01-10T00:16:07;-3.20;73.60
7998;DHT22;4044;49.814;7.828;2024-01-10T00:18:33;-3.30;73.00
7998;DHT22;4044;49.814;7.828;2024-01-10T00:20:59;-3.30;72.90
7998;DHT22;4044;49.814;7.828;2024-01-10T00:23:24;-3.30;72.90
7998;DHT22;4044;49.814;7.828;2024-01-10T00:25:50;-3.30;72.90
7998;DHT22;4044;49.814;7.828;2024-01-10T00:28:16;-3.30;73.20
7998;DHT22;4044;49.814;7.828;2024-01-10T00:30:45;-3.30;72.80
7998;DHT22;4044;49.814;7.828;2024-01-10T00:33:13;-3.30;73.00
7998;DHT22;4044;49.814;7.828;2024-01-10T00:35:38;-3.30;73.20
7998;DHT22;4044;49.814;7.828;2024-01-10T00:38:04;-3.40;73.40
7998;DHT22;4044;49.814;7.828;2024-01-10T00:40:29;-3.40;73.80
7998;DHT22;4044;49.814;7.828;2024-01-10T00:42:55;-3.40;74.00
7998;DHT22;4044;49.814;7.828;2024-01-10T00:45:20;-3.40;74.40
7998;DHT22;4044;49.814;7.828;2024-01-10T00:47:48;-3.40;74.70
7998;DHT22;4044;49.814;7.828;2024-01-10T00:50:13;-3.50;74.80
7998;DHT22;4044;49.814;7.828;2024-01-10T00:52:39;-3.50;75.00
7998;DHT22;4044;49.814;7.828;2024-01-10T00:55:04;-3.50;75.80
7998;DHT22;4044;49.814;7.828;2024-01-10T00:57:30;-3.60;76.50
7998;DHT22;4044;49.814;7.828;2024-01-10T00:59:55;-3.70;76.20
7998;DHT22;4044;49.814;7.828;2024-01-10T01:02:21;-3.70;77.10
7998;DHT22;4044;49.814;7.828;2024-01-10T01:04:47;-3.70;77.40
7998;DHT22;4044;49.814;7.828;2024-01-10T01:07:12;-3.80;77.50
7998;DHT22;4044;49.814;7.828;2024-01-10T01:09:37;-3.80;78.10
7998;DHT22;4044;49.814;7.828;2024-01-10T01:12:03;-3.80;78.10
7998;DHT22;4044;49.814;7.828;2024-01-10T01:14:29;-3.80;78.70
7998;DHT22;4044;49.814;7.828;2024-01-10T01:16:54;-3.80;78.30
7998;DHT22;4044;49.814;7.828;2024-01-10T01:19:20;-3.80;79.20
7998;DHT22;4044;49.814;7.828;2024-01-10T01:21:45;-3.90;78.90
7998;DHT22;4044;49.814;7.828;2024-01-10T01:24:11;-3.90;79.30
7998;DHT22;4044;49.814;7.828;2024-01-10T01:26:36;-3.90;79.20
7998;DHT22;4044;49.814;7.828;2024-01-10T01:29:02;-3.90;79.20
7998;DHT22;4044;49.814;7.828;2024-01-10T01:31:27;-4.00;79.70
7998;DHT22;4044;49.814;7.828;2024-01-10T01:33:53;-4.00;79.10
7998;DHT22;4044;49.814;7.828;2024-01-10T01:36:18;-4.10;79.90
7998;DHT22;4044;49.814;7.828;2024-01-10T01:38:44;-4.10;80.00
7998;DHT22;4044;49.814;7.828;2024-01-10T01:41:10;-4.10;79.70
7998;DHT22;4044;49.814;7.828;2024-01-10T01:43:35;-4.20;80.20
7998;DHT22;4044;49.814;7.828;2024-01-10T01:46:02;-4.20;80.10
7998;DHT22;4044;49.814;7.828;2024-01-10T01:48:29;-4.20;79.50
7998;DHT22;4044;49.814;7.828;2024-01-10T01:50:57;-4.20;80.20
7998;DHT22;4044;49.814;7.828;2024-01-10T01:53:24;-4.30;81.60
7998;DHT22;4044;49.814;7.828;2024-01-10T01:55:50;-4.40;81.40
7998;DHT22;4044;49.814;7.828;2024-01-10T01:58:16;-4.40;81.90
7998;DHT22;4044;49.814;7.828;2024-01-10T02:00:42;-4.40;81.60
7998;DHT22;4044;49.814;7.828;2024-01-10T02:03:09;-4.50;82.50
7998;DHT22;4044;49.814;7.828;2024-01-10T02:05:36;-4.40;82.20
7998;DHT22;4044;49.814;7.828;2024-01-10T02:08:01;-4.40;82.50
7998;DHT22;4044;49.814;7.828;2024-01-10T02:10:27;-4.50;81.50
7998;DHT22;4044;49.814;7.828;2024-01-10T02:12:53;-4.40;82.30
7998;DHT22;4044;49.814;7.828;2024-01-10T02:15:18;-4.50;82.50
7998;DHT22;4044;49.814;7.828;2024-01-10T02:17:44;-4.40;81.60
7998;DHT22;4044;49.814;7.828;2024-01-10T02:20:11;-4.50;82.60
7998;DHT22;4044;49.814;7.828;2024-01-10T02:22:37;-4.50;82.10
7998;DHT22;4044;49.814;7.828;2024-01-10T02:25:09;-4.50;82.00
7998;DHT22;4044;49.814;7.828;2024-01-10T02:27:39;-4.50;82.80
7998;DHT22;4044;49.814;7.828;2024-01-10T02:30:06;-4.50;82.60
7998;DHT22;4044;49.814;7.828;2024-01-10T02:32:31;-4.60;83.70
7998;DHT22;4044;49.814;7.828;2024-01-10T02:34:58;-4.70;83.30
7998;DHT22;4044;49.814;7.828;2024-01-10T02:37:23;-4.70;82.60
7998;DHT22;4044;49.814;7.828;2024-01-10T02:39:49;-4.70;82.80
7998;DHT22;4044;49.814;7.828;2024-01-10T02:42:15;-4.70;83.00
7998;DHT22;4044;49.814;7.828;2024-01-10T02:44:40;-4.70;83.20
7998;DHT22;4044;49.814;7.828;2024-01-10T02:47:06;-4.70;83.70
7998;DHT22;4044;49.814;7.828;2024-01-10T02:49:32;-4.80;82.80
7998;DHT22;4044;49.814;7.828;2024-01-10T02:51:58;-4.80;82.40
7998;DHT22;4044;49.814;7.828;2024-01-10T02:54:24;-4.80;82.30
7998;DHT22;4044;49.814;7.828;2024-01-10T02:56:49;-4.80;83.30
7998;DHT22;4044;49.814;7.828;2024-01-10T02:59:15;-4.80;83.90
7998;DHT22;4044;49.814;7.828;2024-01-10T03:01:40;-4.90;85.30
7998;DHT22;4044;49.814;7.828;2024-01-10T03:04:06;-4.90;84.10
7998;DHT22;4044;49.814;7.828;2024-01-10T03:06:31;-4.90;84.40
7998;DHT22;4044;49.814;7.828;2024-01-10T03:08:57;-4.90;84.20
7998;DHT22;4044;49.814;7.828;2024-01-10T03:11:22;-4.80;84.30
7998;DHT22;4044;49.814;7.828;2024-01-10T03:13:51;-4.70;83.10
7998;DHT22;4044;49.814;7.828;2024-01-10T03:16:17;-4.50;82.00
7998;DHT22;4044;49.814;7.828;2024-01-10T03:18:42;-4.40;81.00
7998;DHT22;4044;49.814;7.828;2024-01-10T03:21:08;-4.20;80.00
7998;DHT22;4044;49.814;7.828;2024-01-10T03:23:33;-4.10;80.00
7998;DHT22;4044;49.814;7.828;2024-01-10T03:25:59;-4.00;79.00
7998;DHT22;4044;49.814;7.828;2024-01-10T03:28:24;-3.90;78.40
7998;DHT22;4044;49.814;7.828;2024-01-10T03:30:50;-3.80;78.70
7998;DHT22;4044;49.814;7.828;2024-01-10T03:33:16;-3.70;78.60
7998;DHT22;4044;49.814;7.828;2024-01-10T03:35:42;-3.70;78.00
7998;DHT22;4044;49.814;7.828;2024-01-10T03:38:08;-3.60;78.50
7998;DHT22;4044;49.814;7.828;2024-01-10T03:40:34;-3.60;78.30
7998;DHT22;4044;49.814;7.828;2024-01-10T03:42:59;-3.50;77.80
7998;DHT22;4044;49.814;7.828;2024-01-10T03:45:25;-3.50;77.40
7998;DHT22;4044;49.814;7.828;2024-01-10T03:47:50;-3.40;77.70
7998;DHT22;4044;49.814;7.828;2024-01-10T03:50:19;-3.40;77.00
7998;DHT22;4044;49.814;7.828;2024-01-10T03:52:45;-3.40;77.70
7998;DHT22;4044;49.814;7.828;2024-01-10T03:55:14;-3.40;77.10
7998;DHT22;4044;49.814;7.828;2024-01-10T03:57:41;-3.40;76.70
7998;DHT22;4044;49.814;7.828;2024-01-10T04:00:07;-3.30;77.40
7998;DHT22;4044;49.814;7.828;2024-01-10T04:02:34;-3.30;77.00
7998;DHT22;4044;49.814;7.828;2024-01-10T04:05:00;-3.40;77.40
7998;DHT22;4044;49.814;7.828;2024-01-10T04:07:27;-3.30;76.80
7998;DHT22;4044;49.814;7.828;2024-01-10T04:09:52;-3.30;77.20
7998;DHT22;4044;49.814;7.828;2024-01-10T04:12:18;-3.30;77.40
7998;DHT22;4044;49.814;7.828;2024-01-10T04:14:43;-3.20;77.10
7998;DHT22;4044;49.814;7.828;2024-01-10T04:17:08;-3.10;76.90
7998;DHT22;4044;49.814;7.828;2024-01-10T04:19:34;-3.10;77.20
7998;DHT22;4044;49.814;7.828;2024-01-10T04:22:00;-3.10;77.10
7998;DHT22;4044;49.814;7.828;2024-01-10T04:24:25;-3.00;76.80
7998;DHT22;4044;49.814;7.828;2024-01-10T04:26:51;-3.00;76.50
7998;DHT22;4044;49.814;7.828;2024-01-10T04:29:16;-2.90;76.50
7998;DHT22;4044;49.814;7.828;2024-01-10T04:31:42;-2.90;76.70
7998;DHT22;4044;49.814;7.828;2024-01-10T04:34:08;-2.90;76.50
7998;DHT22;4044;49.814;7.828;2024-01-10T04:36:33;-2.80;76.50
7998;DHT22;4044;49.814;7.828;2024-01-10T04:38:59;-2.80;76.30
7998;DHT22;4044;49.814;7.828;2024-01-10T04:41:25;-2.70;76.30
7998;DHT22;4044;49.814;7.828;2024-01-10T04:43:51;-2.70;76.50
7998;DHT22;4044;49.814;7.828;2024-01-10T04:46:16;-2.60;76.20
7998;DHT22;4044;49.814;7.828;2024-01-10T04:48:42;-2.60;75.80
7998;DHT22;4044;49.814;7.828;2024-01-10T04:51:07;-2.60;75.70
7998;DHT22;4044;49.814;7.828;2024-01-10T04:53:33;-2.60;76.00
7998;DHT22;4044;49.814;7.828;2024-01-10T04:55:59;-2.70;75.80
7998;DHT22;4044;49.814;7.828;2024-01-10T04:58:24;-2.70;75.80
7998;DHT22;4044;49.814;7.828;2024-01-10T05:00:50;-2.80;75.80
7998;DHT22;4044;49.814;7.828;2024-01-10T05:03:16;-2.80;75.90
7998;DHT22;4044;49.814;7.828;2024-01-10T05:05:41;-2.90;76.00
7998;DHT22;4044;49.814;7.828;2024-01-10T05:08:07;-2.90;76.00
7998;DHT22;4044;49.814;7.828;2024-01-10T05:10:32;-2.90;76.20
7998;DHT22;4044;49.814;7.828;2024-01-10T05:12:58;-3.00;76.10
7998;DHT22;4044;49.814;7.828;2024-01-10T05:15:23;-3.00;76.20
7998;DHT22;4044;49.814;7.828;2024-01-10T05:17:49;-3.00;76.50
7998;DHT22;4044;49.814;7.828;2024-01-10T05:20:14;-3.00;76.60
7998;DHT22;4044;49.814;7.828;2024-01-10T05:22:40;-2.90;76.60
7998;DHT22;4044;49.814;7.828;2024-01-10T05:25:06;-3.00;76.50
7998;DHT22;4044;49.814;7.828;2024-01-10T05:27:32;-3.00;76.60
7998;DHT22;4044;49.814;7.828;2024-01-10T05:29:57;-2.90;77.00
7998;DHT22;4044;49.814;7.828;2024-01-10T05:32:25;-3.00;76.70
7998;DHT22;4044;49.814;7.828;2024-01-10T05:34:51;-2.90;76.70
7998;DHT22;4044;49.814;7.828;2024-01-10T05:37:17;-2.90;76.60
7998;DHT22;4044;49.814;7.828;2024-01-10T05:39:42;-2.80;76.70
7998;DHT22;4044;49.814;7.828;2024-01-10T05:42:08;-2.80;76.50
7998;DHT22;4044;49.814;7.828;2024-01-10T05:44:33;-2.80;76.10
7998;DHT22;4044;49.814;7.828;2024-01-10T05:46:59;-2.70;76.50
7998;DHT22;4044;49.814;7.828;2024-01-10T05:49:25;-2.70;76.20
7998;DHT22;4044;49.814;7.828;2024-01-10T05:51:51;-2.70;76.20
7998;DHT22;4044;49.814;7.828;2024-01-10T05:54:16;-2.70;76.30
7998;DHT22;4044;49.814;7.828;2024-01-10T05:56:43;-2.80;76.20
7998;DHT22;4044;49.814;7.828;2024-01-10T05:59:09;-2.80;76.00
7998;DHT22;4044;49.814;7.828;2024-01-10T06:01:36;-2.80;76.20
7998;DHT22;4044;49.814;7.828;2024-01-10T06:04:04;-2.70;76.40
7998;DHT22;4044;49.814;7.828;2024-01-10T06:06:29;-2.70;76.50
7998;DHT22;4044;49.814;7.828;2024-01-10T06:08:55;-2.70;76.40
7998;DHT22;4044;49.814;7.828;2024-01-10T06:11:20;-2.60;76.90
7998;DHT22;4044;49.814;7.828;2024-01-10T06:13:46;-2.60;76.60
7998;DHT22;4044;49.814;7.828;2024-01-10T06:16:11;-2.50;76.50
7998;DHT22;4044;49.814;7.828;2024-01-10T06:18:38;-2.50;76.40
7998;DHT22;4044;49.814;7.828;2024-01-10T06:21:04;-2.50;76.70
7998;DHT22;4044;49.814;7.828;2024-01-10T06:23:29;-2.40;76.40
7998;DHT22;4044;49.814;7.828;2024-01-10T06:25:55;-2.40;76.30
7998;DHT22;4044;49.814;7.828;2024-01-10T06:28:21;-2.40;76.30
7998;DHT22;4044;49.814;7.828;2024-01-10T06:30:47;-2.50;76.40
7998;DHT22;4044;49.814;7.828;2024-01-10T06:33:12;-2.50;76.40
7998;DHT22;4044;49.814;7.828;2024-01-10T06:35:39;-2.50;76.40
7998;DHT22;4044;49.814;7.828;2024-01-10T06:38:04;-2.50;76.40
7998;DHT22;4044;49.814;7.828;2024-01-10T06:40:30;-2.60;76.30
7998;DHT22;4044;49.814;7.828;2024-01-10T06:42:55;-2.50;76.30
7998;DHT22;4044;49.814;7.828;2024-01-10T06:45:22;-2.40;76.40
7998;DHT22;4044;49.814;7.828;2024-01-10T06:47:47;-2.40;76.60
7998;DHT22;4044;49.814;7.828;2024-01-10T06:50:13;-2.50;76.30
7998;DHT22;4044;49.814;7.828;2024-01-10T06:52:38;-2.50;76.60
7998;DHT22;4044;49.814;7.828;2024-01-10T06:55:04;-2.60;76.50
7998;DHT22;4044;49.814;7.828;2024-01-10T06:57:30;-2.50;77.00
7998;DHT22;4044;49.814;7.828;2024-01-10T06:59:55;-2.60;77.10
7998;DHT22;4044;49.814;7.828;2024-01-10T07:02:22;-2.70;77.30
7998;DHT22;4044;49.814;7.828;2024-01-10T07:04:48;-2.70;77.10
7998;DHT22;4044;49.814;7.828;2024-01-10T07:07:14;-2.80;77.20
7998;DHT22;4044;49.814;7.828;2024-01-10T07:09:39;-2.70;77.40
7998;DHT22;4044;49.814;7.828;2024-01-10T07:12:07;-2.80;77.50
7998;DHT22;4044;49.814;7.828;2024-01-10T07:14:32;-2.80;77.90
7998;DHT22;4044;49.814;7.828;2024-01-10T07:16:58;-2.90;77.90
7998;DHT22;4044;49.814;7.828;2024-01-10T07:19:23;-2.90;78.00
7998;DHT22;4044;49.814;7.828;2024-01-10T07:21:49;-2.90;78.20
7998;DHT22;4044;49.814;7.828;2024-01-10T07:24:15;-2.90;78.50
7998;DHT22;4044;49.814;7.828;2024-01-10T07:26:41;-2.90;78.50
7998;DHT22;4044;49.814;7.828;2024-01-10T07:29:06;-2.90;78.80
7998;DHT22;4044;49.814;7.828;2024-01-10T07:31:34;-2.90;78.60
7998;DHT22;4044;49.814;7.828;2024-01-10T07:33:59;-2.90;78.80
7998;DHT22;4044;49.814;7.828;2024-01-10T07:36:25;-2.90;78.60
7998;DHT22;4044;49.814;7.828;2024-01-10T07:38:57;-2.90;78.50
7998;DHT22;4044;49.814;7.828;2024-01-10T07:41:23;-2.90;78.50
7998;DHT22;4044;49.814;7.828;2024-01-10T07:43:49;-2.80;78.70
7998;DHT22;4044;49.814;7.828;2024-01-10T07:46:14;-2.80;78.60
7998;DHT22;4044;49.814;7.828;2024-01-10T07:48:40;-2.70;79.30
7998;DHT22;4044;49.814;7.828;2024-01-10T07:51:06;-2.60;78.60
7998;DHT22;4044;49.814;7.828;2024-01-10T07:53:32;-2.50;78.40
7998;DHT22;4044;49.814;7.828;2024-01-10T07:55:57;-2.50;78.40
7998;DHT22;4044;49.814;7.828;2024-01-10T07:58:23;-2.40;78.20
7998;DHT22;4044;49.814;7.828;2024-01-10T08:00:48;-2.30;78.20
7998;DHT22;4044;49.814;7.828;2024-01-10T08:03:14;-2.30;77.90
7998;DHT22;4044;49.814;7.828;2024-01-10T08:05:39;-2.30;77.60
7998;DHT22;4044;49.814;7.828;2024-01-10T08:08:05;-2.10;77.40
7998;DHT22;4044;49.814;7.828;2024-01-10T08:10:31;-2.00;77.20
7998;DHT22;4044;49.814;7.828;2024-01-10T08:12:57;-2.00;77.00
7998;DHT22;4044;49.814;7.828;2024-01-10T08:15:23;-2.00;76.70
7998;DHT22;4044;49.814;7.828;2024-01-10T08:17:49;-2.10;76.30
7998;DHT22;4044;49.814;7.828;2024-01-10T08:20:14;-2.10;76.30
7998;DHT22;4044;49.814;7.828;2024-01-10T08:22:44;-2.10;76.50
7998;DHT22;4044;49.814;7.828;2024-01-10T08:25:10;-2.10;76.30
7998;DHT22;4044;49.814;7.828;2024-01-10T08:27:36;-2.10;76.40
7998;DHT22;4044;49.814;7.828;2024-01-10T08:30:01;-2.10;76.20
7998;DHT22;4044;49.814;7.828;2024-01-10T08:32:30;-2.10;76.10
7998;DHT22;4044;49.814;7.828;2024-01-10T08:34:55;-2.10;75.70
7998;DHT22;4044;49.814;7.828;2024-01-10T08:37:21;-2.10;75.90
7998;DHT22;4044;49.814;7.828;2024-01-10T08:39:47;-2.00;76.10
7998;DHT22;4044;49.814;7.828;2024-01-10T08:42:12;-2.00;76.10
7998;DHT22;4044;49.814;7.828;2024-01-10T08:44:38;-2.00;75.80
7998;DHT22;4044;49.814;7.828;2024-01-10T08:47:04;-1.90;75.80
7998;DHT22;4044;49.814;7.828;2024-01-10T08:49:29;-1.90;75.60
7998;DHT22;4044;49.814;7.828;2024-01-10T08:51:55;-1.80;75.50
7998;DHT22;4044;49.814;7.828;2024-01-10T08:54:20;-1.70;75.30
7998;DHT22;4044;49.814;7.828;2024-01-10T08:56:47;-1.70;75.30
7998;DHT22;4044;49.814;7.828;2024-01-10T08:59:13;-1.60;74.90
7998;DHT22;4044;49.814;7.828;2024-01-10T09:01:38;-1.60;74.60
7998;DHT22;4044;49.814;7.828;2024-01-10T09:04:05;-1.40;75.20
7998;DHT22;4044;49.814;7.828;2024-01-10T09:06:32;-1.40;75.00
7998;DHT22;4044;49.814;7.828;2024-01-10T09:08:57;-1.30;75.10
7998;DHT22;4044;49.814;7.828;2024-01-10T09:11:23;-1.20;74.90
7998;DHT22;4044;49.814;7.828;2024-01-10T09:13:50;-1.20;74.70
7998;DHT22;4044;49.814;7.828;2024-01-10T09:16:16;-1.10;75.00
7998;DHT22;4044;49.814;7.828;2024-01-10T09:18:42;-1.10;75.00
7998;DHT22;4044;49.814;7.828;2024-01-10T09:21:07;-1.10;74.60
7998;DHT22;4044;49.814;7.828;2024-01-10T09:23:33;-1.20;74.90
7998;DHT22;4044;49.814;7.828;2024-01-10T09:25:58;-1.20;75.10
7998;DHT22;4044;49.814;7.828;2024-01-10T09:28:24;-1.30;74.80
7998;DHT22;4044;49.814;7.828;2024-01-10T09:30:49;-1.30;75.00
7998;DHT22;4044;49.814;7.828;2024-01-10T09:33:17;-1.30;75.10
7998;DHT22;4044;49.814;7.828;2024-01-10T09:35:42;-1.30;75.30
7998;DHT22;4044;49.814;7.828;2024-01-10T09:38:08;-1.20;75.40
7998;DHT22;4044;49.814;7.828;2024-01-10T09:40:34;-1.20;75.50
7998;DHT22;4044;49.814;7.828;2024-01-10T09:42:59;-1.10;75.90
7998;DHT22;4044;49.814;7.828;2024-01-10T09:45:26;-1.30;75.50
7998;DHT22;4044;49.814;7.828;2024-01-10T09:47:57;-1.30;76.00
7998;DHT22;4044;49.814;7.828;2024-01-10T09:50:23;-1.30;76.20
7998;DHT22;4044;49.814;7.828;2024-01-10T09:52:52;-1.20;76.50
7998;DHT22;4044;49.814;7.828;2024-01-10T09:55:21;-1.20;76.30
7998;DHT22;4044;49.814;7.828;2024-01-10T09:57:47;-1.10;76.40
7998;DHT22;4044;49.814;7.828;2024-01-10T10:00:15;-1.10;75.80
7998;DHT22;4044;49.814;7.828;2024-01-10T10:02:41;-1.30;76.30
7998;DHT22;4044;49.814;7.828;2024-01-10T10:05:17;-1.20;76.60
7998;DHT22;4044;49.814;7.828;2024-01-10T10:07:50;-1.20;76.20
7998;DHT22;4044;49.814;7.828;2024-01-10T10:10:17;-1.10;76.40
7998;DHT22;4044;49.814;7.828;2024-01-10T10:12:51;-1.00;76.30
7998;DHT22;4044;49.814;7.828;2024-01-10T10:15:21;-0.80;76.40
7998;DHT22;4044;49.814;7.828;2024-01-10T10:17:49;-0.70;76.10
7998;DHT22;4044;49.814;7.828;2024-01-10T10:23:04;-0.50;75.50
7998;DHT22;4044;49.814;7.828;2024-01-10T10:25:36;-0.40;75.60
7998;DHT22;4044;49.814;7.828;2024-01-10T10:28:03;-0.30;75.40
7998;DHT22;4044;49.814;7.828;2024-01-10T10:30:31;-0.10;75.30
7998;DHT22;4044;49.814;7.828;2024-01-10T10:32:57;0.10;75.00
7998;DHT22;4044;49.814;7.828;2024-01-10T10:35:23;0.30;74.30
7998;DHT22;4044;49.814;7.828;2024-01-10T10:37:50;0.50;73.90
7998;DHT22;4044;49.814;7.828;2024-01-10T10:40:16;0.70;74.00
7998;DHT22;4044;49.814;7.828;2024-01-10T10:42:48;0.80;73.80
7998;DHT22;4044;49.814;7.828;2024-01-10T10:45:17;1.00;73.00
7998;DHT22;4044;49.814;7.828;2024-01-10T10:47:44;1.00;72.90
7998;DHT22;4044;49.814;7.828;2024-01-10T10:50:22;1.00;72.80
7998;DHT22;4044;49.814;7.828;2024-01-10T10:52:50;0.90;72.50
7998;DHT22;4044;49.814;7.828;2024-01-10T10:55:17;1.00;72.30
7998;DHT22;4044;49.814;7.828;2024-01-10T10:57:45;1.00;72.50
7998;DHT22;4044;49.814;7.828;2024-01-10T11:00:13;1.00;72.70
7998;DHT22;4044;49.814;7.828;2024-01-10T11:02:40;1.00;72.50
7998;DHT22;4044;49.814;7.828;2024-01-10T11:05:08;1.00;72.30
7998;DHT22;4044;49.814;7.828;2024-01-10T11:07:41;1.10;72.90
7998;DHT22;4044;49.814;7.828;2024-01-10T11:10:12;1.10;72.60
7998;DHT22;4044;49.814;7.828;2024-01-10T11:18:52;1.20;72.30
7998;DHT22;4044;49.814;7.828;2024-01-10T11:24:24;1.10;72.20
7998;DHT22;4044;49.814;7.828;2024-01-10T11:26:50;1.10;72.60
7998;DHT22;4044;49.814;7.828;2024-01-10T11:29:16;1.20;72.00
7998;DHT22;4044;49.814;7.828;2024-01-10T11:31:41;1.10;71.60
7998;DHT22;4044;49.814;7.828;2024-01-10T11:34:15;1.20;72.10
7998;DHT22;4044;49.814;7.828;2024-01-10T11:37:10;1.40;72.50
7998;DHT22;4044;49.814;7.828;2024-01-10T11:39:42;1.50;72.50
7998;DHT22;4044;49.814;7.828;2024-01-10T11:42:10;1.70;71.50
7998;DHT22;4044;49.814;7.828;2024-01-10T11:44:47;1.70;71.10
7998;DHT22;4044;49.814;7.828;2024-01-10T11:47:15;1.90;70.80
7998;DHT22;4044;49.814;7.828;2024-01-10T11:49:40;2.00;71.10
7998;DHT22;4044;49.814;7.828;2024-01-10T11:52:06;2.10;70.70
7998;DHT22;4044;49.814;7.828;2024-01-10T11:54:44;2.30;70.60
7998;DHT22;4044;49.814;7.828;2024-01-10T11:57:19;2.60;70.30
7998;DHT22;4044;49.814;7.828;2024-01-10T11:59:45;2.70;69.70
7998;DHT22;4044;49.814;7.828;2024-01-10T12:02:12;2.80;69.10
7998;DHT22;4044;49.814;7.828;2024-01-10T12:04:39;3.00;68.70
7998;DHT22;4044;49.814;7.828;2024-01-10T12:07:05;3.10;68.90
7998;DHT22;4044;49.814;7.828;2024-01-10T12:09:33;3.30;68.30
7998;DHT22;4044;49.814;7.828;2024-01-10T12:11:58;3.40;68.10
7998;DHT22;4044;49.814;7.828;2024-01-10T12:14:24;3.60;68.50
7998;DHT22;4044;49.814;7.828;2024-01-10T12:16:53;3.70;67.20
7998;DHT22;4044;49.814;7.828;2024-01-10T12:19:19;3.90;67.30
7998;DHT22;4044;49.814;7.828;2024-01-10T12:21:44;4.10;67.10
7998;DHT22;4044;49.814;7.828;2024-01-10T12:24:10;4.10;66.50
7998;DHT22;4044;49.814;7.828;2024-01-10T12:26:35;4.30;66.90
7998;DHT22;4044;49.814;7.828;2024-01-10T12:29:01;4.50;66.00
7998;DHT22;4044;49.814;7.828;2024-01-10T12:31:30;4.80;66.00
7998;DHT22;4044;49.814;7.828;2024-01-10T12:33:56;5.00;66.00
7998;DHT22;4044;49.814;7.828;2024-01-10T12:36:22;5.30;66.10
7998;DHT22;4044;49.814;7.828;2024-01-10T12:38:47;5.50;66.00
7998;DHT22;4044;49.814;7.828;2024-01-10T12:41:17;5.80;66.30
7998;DHT22;4044;49.814;7.828;2024-01-10T12:43:43;5.90;64.40
7998;DHT22;4044;49.814;7.828;2024-01-10T12:46:13;5.90;63.80
7998;DHT22;4044;49.814;7.828;2024-01-10T12:48:40;6.10;64.10
7998;DHT22;4044;49.814;7.828;2024-01-10T12:51:12;6.20;64.00
7998;DHT22;4044;49.814;7.828;2024-01-10T12:53:39;6.40;63.10
7998;DHT22;4044;49.814;7.828;2024-01-10T12:56:05;6.60;63.20
7998;DHT22;4044;49.814;7.828;2024-01-10T12:58:32;6.90;63.40
7998;DHT22;4044;49.814;7.828;2024-01-10T13:00:58;7.00;61.80
7998;DHT22;4044;49.814;7.828;2024-01-10T13:03:24;7.20;62.30
7998;DHT22;4044;49.814;7.828;2024-01-10T13:05:50;7.30;62.30
7998;DHT22;4044;49.814;7.828;2024-01-10T13:08:16;7.60;61.70
7998;DHT22;4044;49.814;7.828;2024-01-10T13:10:42;7.70;61.10
7998;DHT22;4044;49.814;7.828;2024-01-10T13:13:07;7.80;61.30
7998;DHT22;4044;49.814;7.828;2024-01-10T13:15:34;8.10;60.30
7998;DHT22;4044;49.814;7.828;2024-01-10T13:17:59;8.20;60.70
7998;DHT22;4044;49.814;7.828;2024-01-10T13:20:25;8.40;60.20
7998;DHT22;4044;49.814;7.828;2024-01-10T13:22:51;8.50;59.70
7998;DHT22;4044;49.814;7.828;2024-01-10T13:25:17;8.50;59.20
7998;DHT22;4044;49.814;7.828;2024-01-10T13:27:43;8.60;58.90
7998;DHT22;4044;49.814;7.828;2024-01-10T13:30:09;8.80;59.10
7998;DHT22;4044;49.814;7.828;2024-01-10T13:32:37;8.70;59.20
7998;DHT22;4044;49.814;7.828;2024-01-10T13:35:04;8.80;58.20
7998;DHT22;4044;49.814;7.828;2024-01-10T13:37:29;8.90;59.70
7998;DHT22;4044;49.814;7.828;2024-01-10T13:39:57;8.90;58.60
7998;DHT22;4044;49.814;7.828;2024-01-10T13:42:22;8.70;58.40
7998;DHT22;4044;49.814;7.828;2024-01-10T13:44:49;8.80;58.30
7998;DHT22;4044;49.814;7.828;2024-01-10T13:47:14;8.90;58.00
7998;DHT22;4044;49.814;7.828;2024-01-10T13:49:40;9.10;59.60
7998;DHT22;4044;49.814;7.828;2024-01-10T13:52:07;9.10;57.70
7998;DHT22;4044;49.814;7.828;2024-01-10T13:54:32;8.90;57.40
7998;DHT22;4044;49.814;7.828;2024-01-10T13:56:58;8.90;57.80
7998;DHT22;4044;49.814;7.828;2024-01-10T13:59:23;8.90;57.00
7998;DHT22;4044;49.814;7.828;2024-01-10T14:01:49;8.70;57.90
7998;DHT22;4044;49.814;7.828;2024-01-10T14:04:14;8.70;58.40
7998;DHT22;4044;49.814;7.828;2024-01-10T14:06:40;8.70;58.60
7998;DHT22;4044;49.814;7.828;2024-01-10T14:09:05;8.60;58.80
7998;DHT22;4044;49.814;7.828;2024-01-10T14:11:33;8.50;58.30
7998;DHT22;4044;49.814;7.828;2024-01-10T14:14:00;8.50;58.00
7998;DHT22;4044;49.814;7.828;2024-01-10T14:16:27;8.20;58.50
7998;DHT22;4044;49.814;7.828;2024-01-10T14:18:53;7.90;57.70
7998;DHT22;4044;49.814;7.828;2024-01-10T14:21:20;7.50;58.20
7998;DHT22;4044;49.814;7.828;2024-01-10T14:23:46;7.30;59.80
7998;DHT22;4044;49.814;7.828;2024-01-10T14:26:13;7.10;59.60
7998;DHT22;4044;49.814;7.828;2024-01-10T14:28:39;7.00;60.00
7998;DHT22;4044;49.814;7.828;2024-01-10T14:31:04;7.00;59.40
7998;DHT22;4044;49.814;7.828;2024-01-10T14:33:30;6.90;59.80
7998;DHT22;4044;49.814;7.828;2024-01-10T14:35:56;6.70;59.10
7998;DHT22;4044;49.814;7.828;2024-01-10T14:38:21;6.50;60.00
7998;DHT22;4044;49.814;7.828;2024-01-10T14:40:47;6.30;60.80
7998;DHT22;4044;49.814;7.828;2024-01-10T14:43:13;6.10;61.00
7998;DHT22;4044;49.814;7.828;2024-01-10T14:45:38;5.80;61.20
7998;DHT22;4044;49.814;7.828;2024-01-10T14:48:04;5.50;61.10
7998;DHT22;4044;49.814;7.828;2024-01-10T14:50:30;5.20;61.60
7998;DHT22;4044;49.814;7.828;2024-01-10T14:52:55;4.80;62.30
7998;DHT22;4044;49.814;7.828;2024-01-10T14:55:23;4.50;62.80
7998;DHT22;4044;49.814;7.828;2024-01-10T14:57:49;4.20;62.90
7998;DHT22;4044;49.814;7.828;2024-01-10T15:00:15;4.00;63.50
7998;DHT22;4044;49.814;7.828;2024-01-10T15:02:41;3.80;64.10
7998;DHT22;4044;49.814;7.828;2024-01-10T15:05:07;3.60;64.20
7998;DHT22;4044;49.814;7.828;2024-01-10T15:07:33;3.40;64.80
7998;DHT22;4044;49.814;7.828;2024-01-10T15:09:58;3.20;64.90
7998;DHT22;4044;49.814;7.828;2024-01-10T15:12:24;3.00;66.10
7998;DHT22;4044;49.814;7.828;2024-01-10T15:14:50;2.80;65.70
7998;DHT22;4044;49.814;7.828;2024-01-10T15:17:16;2.70;66.00
7998;DHT22;4044;49.814;7.828;2024-01-10T15:19:41;2.50;66.10
7998;DHT22;4044;49.814;7.828;2024-01-10T15:22:07;2.50;66.50
7998;DHT22;4044;49.814;7.828;2024-01-10T15:24:33;2.40;66.70
7998;DHT22;4044;49.814;7.828;2024-01-10T15:26:59;2.30;67.10
7998;DHT22;4044;49.814;7.828;2024-01-10T15:29:34;2.30;67.20
7998;DHT22;4044;49.814;7.828;2024-01-10T15:31:59;2.00;67.60
7998;DHT22;4044;49.814;7.828;2024-01-10T15:34:25;1.90;68.00
7998;DHT22;4044;49.814;7.828;2024-01-10T15:36:51;1.70;68.40
7998;DHT22;4044;49.814;7.828;2024-01-10T15:39:16;1.60;69.00
7998;DHT22;4044;49.814;7.828;2024-01-10T15:41:42;1.40;68.90
7998;DHT22;4044;49.814;7.828;2024-01-10T15:44:07;1.20;69.50
7998;DHT22;4044;49.814;7.828;2024-01-10T15:46:35;1.10;70.00
7998;DHT22;4044;49.814;7.828;2024-01-10T15:49:01;1.00;70.30
7998;DHT22;4044;49.814;7.828;2024-01-10T15:51:26;0.90;70.00
7998;DHT22;4044;49.814;7.828;2024-01-10T15:53:52;0.80;70.10
7998;DHT22;4044;49.814;7.828;2024-01-10T15:56:23;0.70;70.40
7998;DHT22;4044;49.814;7.828;2024-01-10T15:58:50;0.70;70.50
7998;DHT22;4044;49.814;7.828;2024-01-10T16:01:15;0.60;70.30
7998;DHT22;4044;49.814;7.828;2024-01-10T16:03:41;0.50;70.90
7998;DHT22;4044;49.814;7.828;2024-01-10T16:06:06;0.50;71.20
7998;DHT22;4044;49.814;7.828;2024-01-10T16:08:32;0.50;71.20
7998;DHT22;4044;49.814;7.828;2024-01-10T16:10:57;0.40;71.60
7998;DHT22;4044;49.814;7.828;2024-01-10T16:13:23;0.40;71.40